sensor_id;sensor_type;location;lat;lon;timestamp;P1;durP1;ratioP1;P2;durP2;ratioP2
70532;SDS011;58088;51.186;17.130;2023-08-17T00:00:53;8.90;;;4.60;;
70532;SDS011;58088;51.186;17.130;2023-08-17T00:03:20;7.60;;;4.60;;
70532;SDS011;58088;51.186;17.130;2023-08-17T00:05:46;9.20;;;4.30;;
70532;SDS011;58088;51.186;17.130;2023-08-17T00:08:12;7.80;;;4.40;;
70532;SDS011;58088;51.186;17.130;2023-08-17T00:10:39;7.70;;;4.40;;
70532;SDS011;58088;51.186;17.130;2023-08-17T00:13:05;8.40;;;4.90;;
70532;SDS011;58088;51.186;17.130;2023-08-17T00:15:31;8.00;;;5.00;;
70532;SDS011;58088;51.186;17.130;2023-08-17T00:17:58;8.90;;;5.30;;
70532;SDS011;58088;51.186;17.130;2023-08-17T00:20:25;9.00;;;4.80;;
70532;SDS011;58088;51.186;17.130;2023-08-17T00:22:51;8.90;;;4.90;;
70532;SDS011;58088;51.186;17.130;2023-08-17T00:25:17;9.20;;;5.20;;
70532;SDS011;58088;51.186;17.130;2023-08-17T00:27:44;8.40;;;4.90;;
70532;SDS011;58088;51.186;17.130;2023-08-17T00:30:10;8.40;;;5.00;;
70532;SDS011;58088;51.186;17.130;2023-08-17T00:32:37;8.00;;;4.80;;
70532;SDS011;58088;51.186;17.130;2023-08-17T00:35:04;8.60;;;4.50;;
70532;SDS011;58088;51.186;17.130;2023-08-17T00:37:31;7.60;;;4.60;;
70532;SDS011;58088;51.186;17.130;2023-08-17T00:39:57;6.90;;;4.80;;
70532;SDS011;58088;51.186;17.130;2023-08-17T00:42:24;9.30;;;4.50;;
70532;SDS011;58088;51.186;17.130;2023-08-17T00:44:50;8.30;;;4.50;;
70532;SDS011;58088;51.186;17.130;2023-08-17T00:47:16;7.80;;;4.60;;
70532;SDS011;58088;51.186;17.130;2023-08-17T00:49:43;8.10;;;5.20;;
70532;SDS011;58088;51.186;17.130;2023-08-17T00:52:09;9.00;;;4.90;;
70532;SDS011;58088;51.186;17.130;2023-08-17T00:54:36;7.60;;;4.70;;
70532;SDS011;58088;51.186;17.130;2023-08-17T00:57:03;7.60;;;4.60;;
70532;SDS011;58088;51.186;17.130;2023-08-17T00:59:33;6.60;;;4.00;;
70532;SDS011;58088;51.186;17.130;2023-08-17T01:02:01;7.50;;;4.10;;
70532;SDS011;58088;51.186;17.130;2023-08-17T01:04:29;7.00;;;4.10;;
70532;SDS011;58088;51.186;17.130;2023-08-17T01:06:58;7.40;;;3.50;;
70532;SDS011;58088;51.186;17.130;2023-08-17T01:09:24;11.30;;;4.20;;
70532;SDS011;58088;51.186;17.130;2023-08-17T01:12:13;8.90;;;3.90;;
70532;SDS011;58088;51.186;17.130;2023-08-17T01:15:09;7.50;;;4.00;;
70532;SDS011;58088;51.186;17.130;2023-08-17T01:17:52;5.30;;;3.20;;
70532;SDS011;58088;51.186;17.130;2023-08-17T01:20:23;7.00;;;3.70;;
70532;SDS011;58088;51.186;17.130;2023-08-17T01:22:52;5.80;;;3.30;;
70532;SDS011;58088;51.186;17.130;2023-08-17T01:25:24;7.90;;;3.70;;
70532;SDS011;58088;51.186;17.130;2023-08-17T01:27:51;7.10;;;3.50;;
70532;SDS011;58088;51.186;17.130;2023-08-17T01:30:18;6.00;;;2.90;;
70532;SDS011;58088;51.186;17.130;2023-08-17T01:32:54;6.00;;;2.90;;
70532;SDS011;58088;51.186;17.130;2023-08-17T01:35:32;7.50;;;3.30;;
70532;SDS011;58088;51.186;17.130;2023-08-17T01:38:07;6.90;;;2.90;;
70532;SDS011;58088;51.186;17.130;2023-08-17T01:40:37;6.20;;;2.90;;
70532;SDS011;58088;51.186;17.130;2023-08-17T01:43:05;4.50;;;2.50;;
70532;SDS011;58088;51.186;17.130;2023-08-17T01:45:32;6.30;;;2.70;;
70532;SDS011;58088;51.186;17.130;2023-08-17T01:48:01;5.70;;;2.50;;
70532;SDS011;58088;51.186;17.130;2023-08-17T01:50:27;6.00;;;2.50;;
70532;SDS011;58088;51.186;17.130;2023-08-17T01:52:53;6.80;;;3.00;;
70532;SDS011;58088;51.186;17.130;2023-08-17T01:55:21;7.20;;;3.60;;
70532;SDS011;58088;51.186;17.130;2023-08-17T01:57:49;6.00;;;3.10;;
70532;SDS011;58088;51.186;17.130;2023-08-17T02:00:15;6.30;;;3.10;;
70532;SDS011;58088;51.186;17.130;2023-08-17T02:03:01;5.60;;;2.70;;
70532;SDS011;58088;51.186;17.130;2023-08-17T02:05:27;6.30;;;2.70;;
70532;SDS011;58088;51.186;17.130;2023-08-17T02:07:54;7.30;;;2.70;;
70532;SDS011;58088;51.186;17.130;2023-08-17T02:10:20;5.70;;;2.20;;
70532;SDS011;58088;51.186;17.130;2023-08-17T02:12:47;5.50;;;2.50;;
70532;SDS011;58088;51.186;17.130;2023-08-17T02:15:14;6.30;;;2.70;;
70532;SDS011;58088;51.186;17.130;2023-08-17T02:17:40;6.70;;;2.60;;
70532;SDS011;58088;51.186;17.130;2023-08-17T02:20:07;6.10;;;2.60;;
70532;SDS011;58088;51.186;17.130;2023-08-17T02:22:34;5.40;;;2.50;;
70532;SDS011;58088;51.186;17.130;2023-08-17T02:25:00;9.10;;;2.60;;
70532;SDS011;58088;51.186;17.130;2023-08-17T02:27:26;6.50;;;2.80;;
70532;SDS011;58088;51.186;17.130;2023-08-17T02:29:52;6.80;;;2.90;;
70532;SDS011;58088;51.186;17.130;2023-08-17T02:32:20;5.30;;;2.90;;
70532;SDS011;58088;51.186;17.130;2023-08-17T02:34:46;5.10;;;2.50;;
70532;SDS011;58088;51.186;17.130;2023-08-17T02:37:13;5.70;;;2.80;;
70532;SDS011;58088;51.186;17.130;2023-08-17T02:39:39;5.80;;;2.90;;
70532;SDS011;58088;51.186;17.130;2023-08-17T02:42:05;6.30;;;2.60;;
70532;SDS011;58088;51.186;17.130;2023-08-17T02:44:31;6.70;;;3.10;;
70532;SDS011;58088;51.186;17.130;2023-08-17T02:46:57;7.20;;;3.10;;
70532;SDS011;58088;51.186;17.130;2023-08-17T02:49:23;6.10;;;2.80;;
70532;SDS011;58088;51.186;17.130;2023-08-17T02:51:49;7.00;;;3.10;;
70532;SDS011;58088;51.186;17.130;2023-08-17T02:54:16;5.60;;;2.90;;
70532;SDS011;58088;51.186;17.130;2023-08-17T02:56:42;6.00;;;3.10;;
70532;SDS011;58088;51.186;17.130;2023-08-17T02:59:08;4.30;;;2.20;;
70532;SDS011;58088;51.186;17.130;2023-08-17T03:01:34;6.20;;;2.70;;
70532;SDS011;58088;51.186;17.130;2023-08-17T03:04:01;5.10;;;2.70;;
70532;SDS011;58088;51.186;17.130;2023-08-17T03:06:28;5.20;;;2.70;;
70532;SDS011;58088;51.186;17.130;2023-08-17T03:08:55;5.90;;;2.60;;
70532;SDS011;58088;51.186;17.130;2023-08-17T03:11:22;7.20;;;2.50;;
70532;SDS011;58088;51.186;17.130;2023-08-17T03:13:48;6.30;;;2.90;;
70532;SDS011;58088;51.186;17.130;2023-08-17T03:16:14;6.10;;;2.70;;
70532;SDS011;58088;51.186;17.130;2023-08-17T03:18:41;6.20;;;2.80;;
70532;SDS011;58088;51.186;17.130;2023-08-17T03:21:09;9.30;;;3.50;;
70532;SDS011;58088;51.186;17.130;2023-08-17T03:23:35;6.30;;;3.10;;
70532;SDS011;58088;51.186;17.130;2023-08-17T03:26:02;7.20;;;3.80;;
70532;SDS011;58088;51.186;17.130;2023-08-17T03:28:28;7.40;;;4.00;;
70532;SDS011;58088;51.186;17.130;2023-08-17T03:30:55;9.00;;;4.30;;
70532;SDS011;58088;51.186;17.130;2023-08-17T03:33:22;11.40;;;4.70;;
70532;SDS011;58088;51.186;17.130;2023-08-17T03:35:49;8.10;;;4.90;;
70532;SDS011;58088;51.186;17.130;2023-08-17T03:38:15;8.80;;;5.20;;
70532;SDS011;58088;51.186;17.130;2023-08-17T03:40:42;8.50;;;4.80;;
70532;SDS011;58088;51.186;17.130;2023-08-17T03:43:09;12.00;;;4.80;;
70532;SDS011;58088;51.186;17.130;2023-08-17T03:45:35;8.90;;;4.60;;
70532;SDS011;58088;51.186;17.130;2023-08-17T03:48:01;6.80;;;4.30;;
70532;SDS011;58088;51.186;17.130;2023-08-17T03:50:28;7.10;;;4.50;;
70532;SDS011;58088;51.186;17.130;2023-08-17T03:52:54;7.20;;;3.80;;
70532;SDS011;58088;51.186;17.130;2023-08-17T03:55:21;8.00;;;4.10;;
70532;SDS011;58088;51.186;17.130;2023-08-17T03:57:47;7.50;;;4.10;;
70532;SDS011;58088;51.186;17.130;2023-08-17T04:00:13;7.70;;;4.20;;
70532;SDS011;58088;51.186;17.130;2023-08-17T04:02:40;8.40;;;4.30;;
70532;SDS011;58088;51.186;17.130;2023-08-17T04:05:07;8.20;;;4.70;;
70532;SDS011;58088;51.186;17.130;2023-08-17T04:07:33;7.60;;;4.40;;
70532;SDS011;58088;51.186;17.130;2023-08-17T04:09:59;8.60;;;4.60;;
70532;SDS011;58088;51.186;17.130;2023-08-17T04:12:26;8.10;;;4.80;;
70532;SDS011;58088;51.186;17.130;2023-08-17T04:14:53;9.50;;;5.40;;
70532;SDS011;58088;51.186;17.130;2023-08-17T04:17:20;8.80;;;4.90;;
70532;SDS011;58088;51.186;17.130;2023-08-17T04:19:47;9.30;;;5.20;;
70532;SDS011;58088;51.186;17.130;2023-08-17T04:22:13;9.90;;;5.20;;
70532;SDS011;58088;51.186;17.130;2023-08-17T04:24:39;9.40;;;5.50;;
70532;SDS011;58088;51.186;17.130;2023-08-17T04:27:07;7.50;;;5.00;;
70532;SDS011;58088;51.186;17.130;2023-08-17T04:29:34;10.20;;;5.10;;
70532;SDS011;58088;51.186;17.130;2023-08-17T04:32:01;7.80;;;4.80;;
70532;SDS011;58088;51.186;17.130;2023-08-17T04:34:27;8.70;;;4.70;;
70532;SDS011;58088;51.186;17.130;2023-08-17T04:36:53;8.10;;;4.80;;
70532;SDS011;58088;51.186;17.130;2023-08-17T04:39:20;9.00;;;5.40;;
70532;SDS011;58088;51.186;17.130;2023-08-17T04:41:46;7.20;;;4.40;;
70532;SDS011;58088;51.186;17.130;2023-08-17T04:44:14;9.00;;;4.90;;
70532;SDS011;58088;51.186;17.130;2023-08-17T04:46:41;7.50;;;4.70;;
70532;SDS011;58088;51.186;17.130;2023-08-17T04:49:07;7.90;;;4.60;;
70532;SDS011;58088;51.186;17.130;2023-08-17T04:51:34;9.00;;;4.70;;
70532;SDS011;58088;51.186;17.130;2023-08-17T04:54:00;8.00;;;5.10;;
70532;SDS011;58088;51.186;17.130;2023-08-17T04:56:26;7.80;;;4.40;;
70532;SDS011;58088;51.186;17.130;2023-08-17T04:58:56;7.40;;;4.10;;
70532;SDS011;58088;51.186;17.130;2023-08-17T05:01:23;8.70;;;4.70;;
70532;SDS011;58088;51.186;17.130;2023-08-17T05:03:49;9.00;;;4.50;;
70532;SDS011;58088;51.186;17.130;2023-08-17T05:06:15;8.20;;;4.40;;
70532;SDS011;58088;51.186;17.130;2023-08-17T05:08:42;9.00;;;3.70;;
70532;SDS011;58088;51.186;17.130;2023-08-17T05:11:08;7.10;;;4.00;;
70532;SDS011;58088;51.186;17.130;2023-08-17T05:13:35;5.50;;;3.10;;
70532;SDS011;58088;51.186;17.130;2023-08-17T05:16:04;7.60;;;2.90;;
70532;SDS011;58088;51.186;17.130;2023-08-17T05:18:31;5.80;;;3.10;;
70532;SDS011;58088;51.186;17.130;2023-08-17T05:20:57;6.40;;;3.20;;
70532;SDS011;58088;51.186;17.130;2023-08-17T05:23:23;6.00;;;3.00;;
70532;SDS011;58088;51.186;17.130;2023-08-17T05:25:50;6.00;;;2.90;;
70532;SDS011;58088;51.186;17.130;2023-08-17T05:28:16;7.40;;;3.30;;
70532;SDS011;58088;51.186;17.130;2023-08-17T05:30:43;7.10;;;3.20;;
70532;SDS011;58088;51.186;17.130;2023-08-17T05:33:09;5.90;;;3.30;;
70532;SDS011;58088;51.186;17.130;2023-08-17T05:35:36;5.70;;;2.80;;
70532;SDS011;58088;51.186;17.130;2023-08-17T05:38:02;5.40;;;2.60;;
70532;SDS011;58088;51.186;17.130;2023-08-17T05:40:30;6.50;;;2.80;;
70532;SDS011;58088;51.186;17.130;2023-08-17T05:42:56;8.30;;;2.70;;
70532;SDS011;58088;51.186;17.130;2023-08-17T05:45:23;5.00;;;2.80;;
70532;SDS011;58088;51.186;17.130;2023-08-17T05:47:49;5.30;;;2.50;;
70532;SDS011;58088;51.186;17.130;2023-08-17T05:50:16;5.20;;;2.20;;
70532;SDS011;58088;51.186;17.130;2023-08-17T05:52:42;7.80;;;2.50;;
70532;SDS011;58088;51.186;17.130;2023-08-17T05:55:08;4.40;;;2.10;;
70532;SDS011;58088;51.186;17.130;2023-08-17T05:57:35;4.90;;;2.50;;
70532;SDS011;58088;51.186;17.130;2023-08-17T06:00:01;4.90;;;2.70;;
70532;SDS011;58088;51.186;17.130;2023-08-17T06:02:39;4.90;;;2.40;;
70532;SDS011;58088;51.186;17.130;2023-08-17T06:05:06;5.40;;;2.70;;
70532;SDS011;58088;51.186;17.130;2023-08-17T06:07:33;5.30;;;2.40;;
70532;SDS011;58088;51.186;17.130;2023-08-17T06:09:59;5.00;;;2.40;;
70532;SDS011;58088;51.186;17.130;2023-08-17T06:12:25;5.40;;;2.40;;
70532;SDS011;58088;51.186;17.130;2023-08-17T06:14:52;5.40;;;2.80;;
70532;SDS011;58088;51.186;17.130;2023-08-17T06:17:18;6.80;;;2.50;;
70532;SDS011;58088;51.186;17.130;2023-08-17T06:19:46;7.20;;;2.40;;
70532;SDS011;58088;51.186;17.130;2023-08-17T06:22:13;5.90;;;2.50;;
70532;SDS011;58088;51.186;17.130;2023-08-17T06:24:39;4.70;;;2.80;;
70532;SDS011;58088;51.186;17.130;2023-08-17T06:27:05;5.40;;;2.70;;
70532;SDS011;58088;51.186;17.130;2023-08-17T06:29:32;7.30;;;2.40;;
70532;SDS011;58088;51.186;17.130;2023-08-17T06:31:58;5.50;;;2.40;;
70532;SDS011;58088;51.186;17.130;2023-08-17T06:34:24;6.90;;;2.50;;
70532;SDS011;58088;51.186;17.130;2023-08-17T06:37:02;5.90;;;2.90;;
70532;SDS011;58088;51.186;17.130;2023-08-17T06:39:29;6.20;;;2.80;;
70532;SDS011;58088;51.186;17.130;2023-08-17T06:41:55;8.60;;;3.20;;
70532;SDS011;58088;51.186;17.130;2023-08-17T06:44:22;6.50;;;3.00;;
70532;SDS011;58088;51.186;17.130;2023-08-17T06:46:48;8.40;;;3.00;;
70532;SDS011;58088;51.186;17.130;2023-08-17T06:49:14;6.80;;;3.20;;
70532;SDS011;58088;51.186;17.130;2023-08-17T06:51:41;7.50;;;3.00;;
70532;SDS011;58088;51.186;17.130;2023-08-17T06:54:07;7.30;;;2.90;;
70532;SDS011;58088;51.186;17.130;2023-08-17T06:56:35;8.30;;;2.60;;
70532;SDS011;58088;51.186;17.130;2023-08-17T06:59:01;5.40;;;2.80;;
70532;SDS011;58088;51.186;17.130;2023-08-17T07:01:28;6.60;;;3.00;;
70532;SDS011;58088;51.186;17.130;2023-08-17T07:03:55;5.10;;;2.90;;
70532;SDS011;58088;51.186;17.130;2023-08-17T07:06:24;6.70;;;2.80;;
70532;SDS011;58088;51.186;17.130;2023-08-17T07:08:50;7.20;;;3.20;;
70532;SDS011;58088;51.186;17.130;2023-08-17T07:11:18;4.80;;;2.60;;
70532;SDS011;58088;51.186;17.130;2023-08-17T07:13:45;6.00;;;2.50;;
70532;SDS011;58088;51.186;17.130;2023-08-17T07:16:11;5.00;;;2.50;;
70532;SDS011;58088;51.186;17.130;2023-08-17T07:18:38;5.30;;;2.40;;
70532;SDS011;58088;51.186;17.130;2023-08-17T07:21:04;5.80;;;2.70;;
70532;SDS011;58088;51.186;17.130;2023-08-17T07:23:30;5.40;;;2.80;;
70532;SDS011;58088;51.186;17.130;2023-08-17T07:25:57;6.60;;;2.60;;
70532;SDS011;58088;51.186;17.130;2023-08-17T07:28:23;4.70;;;2.70;;
70532;SDS011;58088;51.186;17.130;2023-08-17T07:30:50;6.50;;;3.00;;
70532;SDS011;58088;51.186;17.130;2023-08-17T07:33:16;7.00;;;2.60;;
70532;SDS011;58088;51.186;17.130;2023-08-17T07:35:42;5.60;;;2.70;;
70532;SDS011;58088;51.186;17.130;2023-08-17T07:38:09;5.80;;;2.70;;
70532;SDS011;58088;51.186;17.130;2023-08-17T07:40:35;5.00;;;2.80;;
70532;SDS011;58088;51.186;17.130;2023-08-17T07:43:02;7.30;;;2.80;;
70532;SDS011;58088;51.186;17.130;2023-08-17T07:45:28;7.20;;;2.60;;
70532;SDS011;58088;51.186;17.130;2023-08-17T07:47:55;5.10;;;2.90;;
70532;SDS011;58088;51.186;17.130;2023-08-17T07:50:21;5.20;;;2.50;;
70532;SDS011;58088;51.186;17.130;2023-08-17T07:52:47;6.80;;;2.70;;
70532;SDS011;58088;51.186;17.130;2023-08-17T07:55:14;6.60;;;2.60;;
70532;SDS011;58088;51.186;17.130;2023-08-17T07:57:40;6.40;;;2.80;;
70532;SDS011;58088;51.186;17.130;2023-08-17T08:00:07;5.00;;;2.70;;
70532;SDS011;58088;51.186;17.130;2023-08-17T08:02:36;6.20;;;2.80;;
70532;SDS011;58088;51.186;17.130;2023-08-17T08:05:02;6.60;;;3.00;;
70532;SDS011;58088;51.186;17.130;2023-08-17T08:07:29;5.20;;;2.70;;
70532;SDS011;58088;51.186;17.130;2023-08-17T08:09:55;5.00;;;2.80;;
70532;SDS011;58088;51.186;17.130;2023-08-17T08:12:22;6.00;;;3.10;;
70532;SDS011;58088;51.186;17.130;2023-08-17T08:14:48;6.50;;;2.60;;
70532;SDS011;58088;51.186;17.130;2023-08-17T08:17:15;5.70;;;2.70;;
70532;SDS011;58088;51.186;17.130;2023-08-17T08:19:41;5.10;;;2.70;;
70532;SDS011;58088;51.186;17.130;2023-08-17T08:22:07;5.50;;;3.00;;
70532;SDS011;58088;51.186;17.130;2023-08-17T08:24:33;5.30;;;2.80;;
70532;SDS011;58088;51.186;17.130;2023-08-17T08:27:00;6.40;;;3.20;;
70532;SDS011;58088;51.186;17.130;2023-08-17T08:29:27;5.60;;;2.90;;
70532;SDS011;58088;51.186;17.130;2023-08-17T08:31:54;4.30;;;2.70;;
70532;SDS011;58088;51.186;17.130;2023-08-17T08:34:20;5.60;;;2.70;;
70532;SDS011;58088;51.186;17.130;2023-08-17T08:36:46;5.50;;;2.70;;
70532;SDS011;58088;51.186;17.130;2023-08-17T08:39:14;6.50;;;2.90;;
70532;SDS011;58088;51.186;17.130;2023-08-17T08:41:40;7.30;;;3.00;;
70532;SDS011;58088;51.186;17.130;2023-08-17T08:44:07;7.40;;;3.00;;
70532;SDS011;58088;51.186;17.130;2023-08-17T08:46:40;5.60;;;2.90;;
70532;SDS011;58088;51.186;17.130;2023-08-17T08:49:10;5.90;;;2.90;;
70532;SDS011;58088;51.186;17.130;2023-08-17T08:51:42;4.90;;;3.10;;
70532;SDS011;58088;51.186;17.130;2023-08-17T08:54:25;5.00;;;2.90;;
70532;SDS011;58088;51.186;17.130;2023-08-17T08:56:59;5.70;;;2.60;;
70532;SDS011;58088;51.186;17.130;2023-08-17T08:59:29;6.70;;;2.80;;
70532;SDS011;58088;51.186;17.130;2023-08-17T09:01:58;5.20;;;2.90;;
70532;SDS011;58088;51.186;17.130;2023-08-17T09:04:26;5.20;;;2.50;;
70532;SDS011;58088;51.186;17.130;2023-08-17T09:06:53;5.80;;;2.70;;
70532;SDS011;58088;51.186;17.130;2023-08-17T09:09:21;5.80;;;3.40;;
70532;SDS011;58088;51.186;17.130;2023-08-17T09:11:48;4.70;;;3.00;;
70532;SDS011;58088;51.186;17.130;2023-08-17T09:14:14;6.90;;;3.00;;
70532;SDS011;58088;51.186;17.130;2023-08-17T09:16:41;5.00;;;2.80;;
70532;SDS011;58088;51.186;17.130;2023-08-17T09:19:07;5.00;;;3.10;;
70532;SDS011;58088;51.186;17.130;2023-08-17T09:21:34;6.00;;;2.70;;
70532;SDS011;58088;51.186;17.130;2023-08-17T09:24:00;5.90;;;2.80;;
70532;SDS011;58088;51.186;17.130;2023-08-17T09:26:31;5.50;;;2.80;;
70532;SDS011;58088;51.186;17.130;2023-08-17T09:29:16;6.50;;;2.90;;
70532;SDS011;58088;51.186;17.130;2023-08-17T09:31:44;6.00;;;2.60;;
70532;SDS011;58088;51.186;17.130;2023-08-17T09:34:10;7.50;;;2.90;;
70532;SDS011;58088;51.186;17.130;2023-08-17T09:36:37;5.10;;;2.90;;
70532;SDS011;58088;51.186;17.130;2023-08-17T09:39:03;4.70;;;2.80;;
70532;SDS011;58088;51.186;17.130;2023-08-17T09:41:29;4.70;;;2.80;;
70532;SDS011;58088;51.186;17.130;2023-08-17T09:43:56;5.40;;;2.80;;
70532;SDS011;58088;51.186;17.130;2023-08-17T09:46:22;6.10;;;2.70;;
70532;SDS011;58088;51.186;17.130;2023-08-17T09:48:49;5.90;;;3.00;;
70532;SDS011;58088;51.186;17.130;2023-08-17T09:51:16;4.90;;;2.80;;
70532;SDS011;58088;51.186;17.130;2023-08-17T09:53:43;5.70;;;2.70;;
70532;SDS011;58088;51.186;17.130;2023-08-17T09:56:10;5.60;;;2.90;;
70532;SDS011;58088;51.186;17.130;2023-08-17T09:58:38;5.10;;;2.90;;
70532;SDS011;58088;51.186;17.130;2023-08-17T10:01:05;6.10;;;3.00;;
70532;SDS011;58088;51.186;17.130;2023-08-17T10:03:35;4.80;;;3.30;;
70532;SDS011;58088;51.186;17.130;2023-08-17T10:06:06;5.50;;;3.00;;
70532;SDS011;58088;51.186;17.130;2023-08-17T10:08:46;4.30;;;2.70;;
70532;SDS011;58088;51.186;17.130;2023-08-17T10:11:19;4.90;;;2.70;;
70532;SDS011;58088;51.186;17.130;2023-08-17T10:13:59;4.40;;;2.90;;
70532;SDS011;58088;51.186;17.130;2023-08-17T10:16:45;4.30;;;2.70;;
70532;SDS011;58088;51.186;17.130;2023-08-17T10:19:37;7.20;;;2.90;;
70532;SDS011;58088;51.186;17.130;2023-08-17T10:25:05;5.60;;;2.80;;
70532;SDS011;58088;51.186;17.130;2023-08-17T10:27:34;7.00;;;3.00;;
70532;SDS011;58088;51.186;17.130;2023-08-17T10:30:01;4.60;;;2.70;;
70532;SDS011;58088;51.186;17.130;2023-08-17T10:32:28;4.50;;;3.00;;
70532;SDS011;58088;51.186;17.130;2023-08-17T10:34:56;6.50;;;3.00;;
70532;SDS011;58088;51.186;17.130;2023-08-17T10:37:23;4.40;;;2.90;;
70532;SDS011;58088;51.186;17.130;2023-08-17T10:39:51;4.70;;;2.90;;
70532;SDS011;58088;51.186;17.130;2023-08-17T10:42:35;4.40;;;2.70;;
70532;SDS011;58088;51.186;17.130;2023-08-17T10:50:39;5.90;;;3.10;;
70532;SDS011;58088;51.186;17.130;2023-08-17T10:53:11;4.60;;;2.80;;
70532;SDS011;58088;51.186;17.130;2023-08-17T10:55:39;4.30;;;2.90;;
70532;SDS011;58088;51.186;17.130;2023-08-17T10:58:07;8.70;;;3.60;;
70532;SDS011;58088;51.186;17.130;2023-08-17T11:00:36;6.30;;;3.10;;
70532;SDS011;58088;51.186;17.130;2023-08-17T11:03:07;6.60;;;2.90;;
70532;SDS011;58088;51.186;17.130;2023-08-17T11:05:52;6.30;;;3.40;;
70532;SDS011;58088;51.186;17.130;2023-08-17T11:08:37;5.90;;;3.30;;
70532;SDS011;58088;51.186;17.130;2023-08-17T11:11:09;7.70;;;3.30;;
70532;SDS011;58088;51.186;17.130;2023-08-17T11:13:39;4.80;;;3.30;;
70532;SDS011;58088;51.186;17.130;2023-08-17T11:16:08;8.10;;;3.30;;
70532;SDS011;58088;51.186;17.130;2023-08-17T11:18:36;5.10;;;3.20;;
70532;SDS011;58088;51.186;17.130;2023-08-17T11:21:04;6.60;;;3.80;;
70532;SDS011;58088;51.186;17.130;2023-08-17T11:23:33;5.00;;;3.50;;
70532;SDS011;58088;51.186;17.130;2023-08-17T11:26:01;5.70;;;3.40;;
70532;SDS011;58088;51.186;17.130;2023-08-17T11:28:30;5.20;;;3.10;;
70532;SDS011;58088;51.186;17.130;2023-08-17T11:31:06;5.00;;;3.50;;
70532;SDS011;58088;51.186;17.130;2023-08-17T11:33:35;4.70;;;3.20;;
70532;SDS011;58088;51.186;17.130;2023-08-17T11:36:05;5.50;;;3.20;;
70532;SDS011;58088;51.186;17.130;2023-08-17T11:38:34;5.70;;;3.60;;
70532;SDS011;58088;51.186;17.130;2023-08-17T11:41:05;6.30;;;3.40;;
70532;SDS011;58088;51.186;17.130;2023-08-17T11:43:34;5.60;;;3.30;;
70532;SDS011;58088;51.186;17.130;2023-08-17T11:46:01;5.50;;;4.20;;
70532;SDS011;58088;51.186;17.130;2023-08-17T11:48:29;6.00;;;3.70;;
70532;SDS011;58088;51.186;17.130;2023-08-17T11:50:57;6.40;;;3.80;;
70532;SDS011;58088;51.186;17.130;2023-08-17T11:53:24;5.50;;;3.60;;
70532;SDS011;58088;51.186;17.130;2023-08-17T11:55:51;5.70;;;3.80;;
70532;SDS011;58088;51.186;17.130;2023-08-17T11:58:17;5.90;;;3.90;;
70532;SDS011;58088;51.186;17.130;2023-08-17T12:00:44;7.30;;;3.50;;
70532;SDS011;58088;51.186;17.130;2023-08-17T12:03:15;6.90;;;4.00;;
70532;SDS011;58088;51.186;17.130;2023-08-17T12:05:43;6.30;;;3.90;;
70532;SDS011;58088;51.186;17.130;2023-08-17T12:08:12;6.60;;;3.80;;
70532;SDS011;58088;51.186;17.130;2023-08-17T12:10:44;6.20;;;4.20;;
70532;SDS011;58088;51.186;17.130;2023-08-17T12:13:13;9.20;;;4.50;;
70532;SDS011;58088;51.186;17.130;2023-08-17T12:15:40;6.50;;;4.00;;
70532;SDS011;58088;51.186;17.130;2023-08-17T12:18:08;5.90;;;4.10;;
70532;SDS011;58088;51.186;17.130;2023-08-17T12:20:35;5.60;;;4.10;;
70532;SDS011;58088;51.186;17.130;2023-08-17T12:23:02;6.20;;;4.70;;
70532;SDS011;58088;51.186;17.130;2023-08-17T12:25:29;6.50;;;4.30;;
70532;SDS011;58088;51.186;17.130;2023-08-17T12:28:00;8.30;;;4.10;;
70532;SDS011;58088;51.186;17.130;2023-08-17T12:30:29;7.60;;;4.10;;
70532;SDS011;58088;51.186;17.130;2023-08-17T12:32:58;6.80;;;4.10;;
70532;SDS011;58088;51.186;17.130;2023-08-17T12:35:25;6.50;;;4.40;;
70532;SDS011;58088;51.186;17.130;2023-08-17T12:37:52;6.00;;;4.10;;
70532;SDS011;58088;51.186;17.130;2023-08-17T12:40:19;5.80;;;4.10;;
70532;SDS011;58088;51.186;17.130;2023-08-17T12:42:46;7.90;;;4.30;;
70532;SDS011;58088;51.186;17.130;2023-08-17T12:45:14;5.80;;;4.30;;
70532;SDS011;58088;51.186;17.130;2023-08-17T12:47:41;8.60;;;4.10;;
70532;SDS011;58088;51.186;17.130;2023-08-17T12:50:08;6.90;;;4.50;;
70532;SDS011;58088;51.186;17.130;2023-08-17T12:52:34;5.80;;;4.00;;
70532;SDS011;58088;51.186;17.130;2023-08-17T12:55:01;6.00;;;4.20;;
70532;SDS011;58088;51.186;17.130;2023-08-17T12:57:28;7.00;;;4.30;;
70532;SDS011;58088;51.186;17.130;2023-08-17T12:59:54;7.10;;;4.40;;
70532;SDS011;58088;51.186;17.130;2023-08-17T13:02:21;6.40;;;4.80;;
70532;SDS011;58088;51.186;17.130;2023-08-17T13:04:47;6.90;;;4.60;;
70532;SDS011;58088;51.186;17.130;2023-08-17T13:07:13;6.60;;;4.40;;
70532;SDS011;58088;51.186;17.130;2023-08-17T13:09:41;7.20;;;4.70;;
70532;SDS011;58088;51.186;17.130;2023-08-17T13:12:07;6.80;;;4.40;;
70532;SDS011;58088;51.186;17.130;2023-08-17T13:14:34;6.50;;;4.50;;
70532;SDS011;58088;51.186;17.130;2023-08-17T13:17:00;6.40;;;4.70;;
70532;SDS011;58088;51.186;17.130;2023-08-17T13:19:26;6.30;;;4.40;;
70532;SDS011;58088;51.186;17.130;2023-08-17T13:21:53;8.40;;;4.80;;
70532;SDS011;58088;51.186;17.130;2023-08-17T13:24:19;8.80;;;4.60;;
70532;SDS011;58088;51.186;17.130;2023-08-17T13:26:45;6.70;;;4.30;;
70532;SDS011;58088;51.186;17.130;2023-08-17T13:29:12;6.60;;;4.50;;
70532;SDS011;58088;51.186;17.130;2023-08-17T13:31:38;7.60;;;4.40;;
70532;SDS011;58088;51.186;17.130;2023-08-17T13:34:04;7.60;;;4.80;;
70532;SDS011;58088;51.186;17.130;2023-08-17T13:36:31;6.60;;;4.40;;
70532;SDS011;58088;51.186;17.130;2023-08-17T13:38:58;6.80;;;4.50;;
70532;SDS011;58088;51.186;17.130;2023-08-17T13:41:24;6.90;;;5.00;;
70532;SDS011;58088;51.186;17.130;2023-08-17T13:43:51;5.60;;;4.20;;
70532;SDS011;58088;51.186;17.130;2023-08-17T13:46:17;7.80;;;4.50;;
70532;SDS011;58088;51.186;17.130;2023-08-17T13:48:43;7.00;;;4.90;;
70532;SDS011;58088;51.186;17.130;2023-08-17T13:51:10;6.50;;;4.70;;
70532;SDS011;58088;51.186;17.130;2023-08-17T13:53:37;7.80;;;5.10;;
70532;SDS011;58088;51.186;17.130;2023-08-17T13:56:04;6.90;;;5.00;;
70532;SDS011;58088;51.186;17.130;2023-08-17T13:58:30;8.60;;;5.60;;
70532;SDS011;58088;51.186;17.130;2023-08-17T14:00:56;8.40;;;5.20;;
70532;SDS011;58088;51.186;17.130;2023-08-17T14:03:23;7.40;;;5.10;;
70532;SDS011;58088;51.186;17.130;2023-08-17T14:05:49;8.20;;;4.60;;
70532;SDS011;58088;51.186;17.130;2023-08-17T14:08:15;10.80;;;5.10;;
70532;SDS011;58088;51.186;17.130;2023-08-17T14:10:42;8.00;;;5.10;;
70532;SDS011;58088;51.186;17.130;2023-08-17T14:13:08;6.50;;;5.00;;
70532;SDS011;58088;51.186;17.130;2023-08-17T14:15:34;8.40;;;6.00;;
70532;SDS011;58088;51.186;17.130;2023-08-17T14:18:00;6.80;;;5.40;;
70532;SDS011;58088;51.186;17.130;2023-08-17T14:20:27;7.90;;;5.70;;
70532;SDS011;58088;51.186;17.130;2023-08-17T14:22:53;9.40;;;5.40;;
70532;SDS011;58088;51.186;17.130;2023-08-17T14:25:19;8.70;;;5.40;;
70532;SDS011;58088;51.186;17.130;2023-08-17T14:27:45;6.70;;;5.40;;
70532;SDS011;58088;51.186;17.130;2023-08-17T14:30:12;6.40;;;5.10;;
70532;SDS011;58088;51.186;17.130;2023-08-17T14:32:38;16.00;;;5.70;;
70532;SDS011;58088;51.186;17.130;2023-08-17T14:35:05;7.10;;;5.20;;
70532;SDS011;58088;51.186;17.130;2023-08-17T14:37:31;8.50;;;5.60;;
70532;SDS011;58088;51.186;17.130;2023-08-17T14:39:57;8.50;;;5.10;;
70532;SDS011;58088;51.186;17.130;2023-08-17T14:42:24;6.50;;;4.60;;
70532;SDS011;58088;51.186;17.130;2023-08-17T14:44:51;8.70;;;5.20;;